Willmar, MN

6:52 AM CST on November 26, 2014 (GMT -0600)
Willmar | Change Station
CLOSE
Current Station
Airport
Location: Willmar,
Elevation: 1125 ft
Nearby Weather Stations
Active Advisory: Winter Weather Advisory

Elev 1125 ft 45.12 °N, 95.13 °W | Updated 17 minutes ago

Snow
Snow
25 °F
Feels Like 14 °F
N
12
Wind Variable Wind from NNE

Today
High -- | Low -- °F
--% Chance of Precip.
Yesterday
High -- | Low -- °F
Precip. -- in
7:32 AM 4:42 PM
Waxing Crescent, 19% visible
Pressure 30.08 in
Visibility 5.0 miles
Clouds Mostly Cloudy 3000 ft
Windchill 14 °F
Dew Point 19 °F
Humidity 80%
Rainfall 0.00 in
Snow Depth Not available.
UV 0 out of 12
Pollen .10 out of 12
Air Quality Not available.
Flu Activity Not available.
METAR KBDH 261235Z AUTO 03010KT 5SM HZ BKN030 M04/M07 A3008 RMK AO2

More Conditions Fewer Conditions

Pressure 30.08 in
Visibility 5.0 miles
Clouds Mostly Cloudy 3000 ft
Windchill 14 °F
Dew Point 19 °F
Humidity 80%
Rainfall 0.00 in
Snow Depth Not available.
UV 0 out of 12
Pollen .10 out of 12
Air Quality Not available.
Flu Activity Not available.
METAR KBDH 261235Z AUTO 03010KT 5SM HZ BKN030 M04/M07 A3008 RMK AO2

More Conditions Fewer Conditions

10-Day Weather Forecast

Almanac

Astronomy

Nov. 26, 2014 Rise Set
Actual Time
Civil Twilight
Nautical Twilight
Astronomical Twilight
Moon
Length of Visible Light
Length of Day
Tomorrow will be .
, % of the Moon is Illuminated

Today's Extremes

State Highs State Lows

Community

WunderPhotos

Upload Photos

1,773,715 photos uploaded!

WunderBlogs® & News

Nearby

Air Quality

  Air Quality AQ Index Pollutant
Not available.

Snow Depth

Station Depth Elevation

Earthquake Activity

City Distance Mag. Time & Date
Minimum magnitude displayed is 2.5.

Coastal Water Temperatures

Place Temperature

Nearby Weather Stations